sensor_id;sensor_type;location;lat;lon;timestamp;P1;durP1;ratioP1;P2;durP2;ratioP2
6566;SDS011;3317;43.994;22.878;2022-12-08T00:01:33;36.33;;;22.50;;
6566;SDS011;3317;43.994;22.878;2022-12-08T00:04:00;43.47;;;25.17;;
6566;SDS011;3317;43.994;22.878;2022-12-08T00:06:29;37.80;;;21.57;;
6566;SDS011;3317;43.994;22.878;2022-12-08T00:09:16;33.93;;;19.37;;
6566;SDS011;3317;43.994;22.878;2022-12-08T00:11:47;35.87;;;20.20;;
6566;SDS011;3317;43.994;22.878;2022-12-08T00:14:15;40.60;;;24.00;;
6566;SDS011;3317;43.994;22.878;2022-12-08T00:16:43;32.97;;;18.97;;
6566;SDS011;3317;43.994;22.878;2022-12-08T00:19:10;30.07;;;17.40;;
6566;SDS011;3317;43.994;22.878;2022-12-08T00:21:37;25.70;;;15.67;;
6566;SDS011;3317;43.994;22.878;2022-12-08T00:24:04;25.67;;;16.80;;
6566;SDS011;3317;43.994;22.878;2022-12-08T00:26:32;24.17;;;14.67;;
6566;SDS011;3317;43.994;22.878;2022-12-08T00:28:58;25.03;;;15.37;;
6566;SDS011;3317;43.994;22.878;2022-12-08T00:31:25;29.57;;;18.23;;
6566;SDS011;3317;43.994;22.878;2022-12-08T00:33:54;30.70;;;18.03;;
6566;SDS011;3317;43.994;22.878;2022-12-08T00:36:21;33.73;;;18.80;;
6566;SDS011;3317;43.994;22.878;2022-12-08T00:38:48;29.60;;;18.40;;
6566;SDS011;3317;43.994;22.878;2022-12-08T00:41:16;24.83;;;15.50;;
6566;SDS011;3317;43.994;22.878;2022-12-08T00:44:05;25.27;;;14.80;;
6566;SDS011;3317;43.994;22.878;2022-12-08T00:46:32;25.10;;;15.10;;
6566;SDS011;3317;43.994;22.878;2022-12-08T00:49:00;27.00;;;16.20;;
6566;SDS011;3317;43.994;22.878;2022-12-08T00:51:28;25.60;;;15.70;;
6566;SDS011;3317;43.994;22.878;2022-12-08T00:53:55;32.37;;;21.10;;
6566;SDS011;3317;43.994;22.878;2022-12-08T00:56:22;37.40;;;21.93;;
6566;SDS011;3317;43.994;22.878;2022-12-08T00:58:49;37.20;;;19.97;;
6566;SDS011;3317;43.994;22.878;2022-12-08T01:01:16;34.30;;;20.90;;
6566;SDS011;3317;43.994;22.878;2022-12-08T01:03:43;35.07;;;21.10;;
6566;SDS011;3317;43.994;22.878;2022-12-08T01:06:11;34.17;;;20.63;;
6566;SDS011;3317;43.994;22.878;2022-12-08T01:08:39;39.53;;;21.47;;
6566;SDS011;3317;43.994;22.878;2022-12-08T01:11:07;36.90;;;19.77;;
6566;SDS011;3317;43.994;22.878;2022-12-08T01:13:36;27.00;;;17.47;;
6566;SDS011;3317;43.994;22.878;2022-12-08T01:16:03;29.27;;;17.50;;
6566;SDS011;3317;43.994;22.878;2022-12-08T01:18:30;27.53;;;16.90;;
6566;SDS011;3317;43.994;22.878;2022-12-08T01:21:00;33.20;;;20.40;;
6566;SDS011;3317;43.994;22.878;2022-12-08T01:23:29;25.57;;;16.50;;
6566;SDS011;3317;43.994;22.878;2022-12-08T01:26:00;31.87;;;19.73;;
6566;SDS011;3317;43.994;22.878;2022-12-08T01:28:28;33.77;;;21.00;;
6566;SDS011;3317;43.994;22.878;2022-12-08T01:30:56;33.77;;;20.57;;
6566;SDS011;3317;43.994;22.878;2022-12-08T01:33:23;28.17;;;17.80;;
6566;SDS011;3317;43.994;22.878;2022-12-08T01:35:51;26.90;;;16.60;;
6566;SDS011;3317;43.994;22.878;2022-12-08T01:38:19;23.80;;;14.83;;
6566;SDS011;3317;43.994;22.878;2022-12-08T01:40:48;23.37;;;14.50;;
6566;SDS011;3317;43.994;22.878;2022-12-08T01:43:16;24.27;;;14.50;;
6566;SDS011;3317;43.994;22.878;2022-12-08T01:45:44;29.47;;;15.77;;
6566;SDS011;3317;43.994;22.878;2022-12-08T01:48:13;27.77;;;16.40;;
6566;SDS011;3317;43.994;22.878;2022-12-08T01:50:43;19.47;;;12.10;;
6566;SDS011;3317;43.994;22.878;2022-12-08T01:53:13;23.13;;;13.90;;
6566;SDS011;3317;43.994;22.878;2022-12-08T01:55:46;17.73;;;11.60;;
6566;SDS011;3317;43.994;22.878;2022-12-08T01:58:19;19.27;;;12.40;;
6566;SDS011;3317;43.994;22.878;2022-12-08T02:00:49;21.27;;;13.70;;
6566;SDS011;3317;43.994;22.878;2022-12-08T02:03:20;20.87;;;12.47;;
6566;SDS011;3317;43.994;22.878;2022-12-08T02:05:51;23.50;;;14.07;;
6566;SDS011;3317;43.994;22.878;2022-12-08T02:08:18;22.83;;;13.83;;
6566;SDS011;3317;43.994;22.878;2022-12-08T02:10:45;33.87;;;20.30;;
6566;SDS011;3317;43.994;22.878;2022-12-08T02:13:16;29.97;;;16.50;;
6566;SDS011;3317;43.994;22.878;2022-12-08T02:15:49;28.53;;;16.33;;
6566;SDS011;3317;43.994;22.878;2022-12-08T02:18:33;27.80;;;17.30;;
6566;SDS011;3317;43.994;22.878;2022-12-08T02:21:08;25.33;;;14.53;;
6566;SDS011;3317;43.994;22.878;2022-12-08T02:23:41;32.00;;;18.20;;
6566;SDS011;3317;43.994;22.878;2022-12-08T02:32:22;26.97;;;16.63;;
6566;SDS011;3317;43.994;22.878;2022-12-08T02:35:08;27.63;;;17.80;;
6566;SDS011;3317;43.994;22.878;2022-12-08T02:37:40;20.77;;;14.63;;
6566;SDS011;3317;43.994;22.878;2022-12-08T02:40:14;27.37;;;18.20;;
6566;SDS011;3317;43.994;22.878;2022-12-08T02:42:47;30.43;;;18.10;;
6566;SDS011;3317;43.994;22.878;2022-12-08T02:45:21;24.53;;;14.37;;
6566;SDS011;3317;43.994;22.878;2022-12-08T02:47:53;23.87;;;13.97;;
6566;SDS011;3317;43.994;22.878;2022-12-08T02:50:21;29.63;;;16.20;;
6566;SDS011;3317;43.994;22.878;2022-12-08T02:52:48;28.00;;;17.10;;
6566;SDS011;3317;43.994;22.878;2022-12-08T02:55:23;25.03;;;13.83;;
6566;SDS011;3317;43.994;22.878;2022-12-08T02:58:09;23.80;;;15.23;;
6566;SDS011;3317;43.994;22.878;2022-12-08T03:00:52;31.43;;;16.97;;
6566;SDS011;3317;43.994;22.878;2022-12-08T03:03:33;27.17;;;15.20;;
6566;SDS011;3317;43.994;22.878;2022-12-08T03:06:14;29.70;;;16.80;;
6566;SDS011;3317;43.994;22.878;2022-12-08T03:08:53;28.43;;;15.47;;
6566;SDS011;3317;43.994;22.878;2022-12-08T03:11:23;25.47;;;15.30;;
6566;SDS011;3317;43.994;22.878;2022-12-08T03:13:56;29.70;;;16.30;;
6566;SDS011;3317;43.994;22.878;2022-12-08T03:16:27;31.83;;;18.00;;
6566;SDS011;3317;43.994;22.878;2022-12-08T03:18:57;29.47;;;17.13;;
6566;SDS011;3317;43.994;22.878;2022-12-08T03:21:30;28.17;;;16.90;;
6566;SDS011;3317;43.994;22.878;2022-12-08T03:23:59;25.43;;;16.37;;
6566;SDS011;3317;43.994;22.878;2022-12-08T03:26:30;29.47;;;16.60;;
6566;SDS011;3317;43.994;22.878;2022-12-08T03:29:04;28.53;;;17.43;;
6566;SDS011;3317;43.994;22.878;2022-12-08T03:31:32;27.90;;;16.67;;
6566;SDS011;3317;43.994;22.878;2022-12-08T03:34:04;29.37;;;16.40;;
6566;SDS011;3317;43.994;22.878;2022-12-08T03:36:34;29.53;;;16.47;;
6566;SDS011;3317;43.994;22.878;2022-12-08T03:39:01;28.10;;;18.00;;
6566;SDS011;3317;43.994;22.878;2022-12-08T03:41:28;23.60;;;15.63;;
6566;SDS011;3317;43.994;22.878;2022-12-08T03:43:56;27.23;;;15.77;;
6566;SDS011;3317;43.994;22.878;2022-12-08T03:46:25;30.00;;;17.00;;
6566;SDS011;3317;43.994;22.878;2022-12-08T03:48:53;29.80;;;17.33;;
6566;SDS011;3317;43.994;22.878;2022-12-08T03:51:20;26.53;;;15.10;;
6566;SDS011;3317;43.994;22.878;2022-12-08T03:53:50;23.70;;;14.27;;
6566;SDS011;3317;43.994;22.878;2022-12-08T03:56:18;26.47;;;14.53;;
6566;SDS011;3317;43.994;22.878;2022-12-08T03:58:48;23.47;;;15.77;;
6566;SDS011;3317;43.994;22.878;2022-12-08T04:01:15;25.83;;;14.50;;
6566;SDS011;3317;43.994;22.878;2022-12-08T04:03:42;25.50;;;15.53;;
6566;SDS011;3317;43.994;22.878;2022-12-08T04:06:09;25.77;;;15.60;;
6566;SDS011;3317;43.994;22.878;2022-12-08T04:08:36;24.03;;;15.03;;
6566;SDS011;3317;43.994;22.878;2022-12-08T04:11:04;25.13;;;14.30;;
6566;SDS011;3317;43.994;22.878;2022-12-08T04:13:32;23.83;;;14.43;;
6566;SDS011;3317;43.994;22.878;2022-12-08T04:15:59;23.37;;;14.23;;
6566;SDS011;3317;43.994;22.878;2022-12-08T04:18:26;23.80;;;15.17;;
6566;SDS011;3317;43.994;22.878;2022-12-08T04:20:53;23.30;;;14.33;;
6566;SDS011;3317;43.994;22.878;2022-12-08T04:23:20;25.20;;;15.83;;
6566;SDS011;3317;43.994;22.878;2022-12-08T04:25:47;27.77;;;18.80;;
6566;SDS011;3317;43.994;22.878;2022-12-08T04:28:16;36.43;;;21.10;;
6566;SDS011;3317;43.994;22.878;2022-12-08T04:30:43;33.27;;;21.23;;
6566;SDS011;3317;43.994;22.878;2022-12-08T04:33:10;27.83;;;17.07;;
6566;SDS011;3317;43.994;22.878;2022-12-08T04:35:37;30.43;;;17.87;;
6566;SDS011;3317;43.994;22.878;2022-12-08T04:38:06;33.40;;;18.10;;
6566;SDS011;3317;43.994;22.878;2022-12-08T04:40:33;24.60;;;15.07;;
6566;SDS011;3317;43.994;22.878;2022-12-08T04:43:00;27.37;;;16.20;;
6566;SDS011;3317;43.994;22.878;2022-12-08T04:45:28;25.83;;;16.00;;
6566;SDS011;3317;43.994;22.878;2022-12-08T04:47:55;21.67;;;13.40;;
6566;SDS011;3317;43.994;22.878;2022-12-08T04:50:23;24.80;;;15.87;;
6566;SDS011;3317;43.994;22.878;2022-12-08T04:52:50;26.70;;;16.20;;
6566;SDS011;3317;43.994;22.878;2022-12-08T04:55:17;25.13;;;15.90;;
6566;SDS011;3317;43.994;22.878;2022-12-08T04:57:44;27.53;;;16.70;;
6566;SDS011;3317;43.994;22.878;2022-12-08T05:00:11;25.90;;;15.83;;
6566;SDS011;3317;43.994;22.878;2022-12-08T05:02:40;24.00;;;15.80;;
6566;SDS011;3317;43.994;22.878;2022-12-08T05:05:08;23.17;;;14.70;;
6566;SDS011;3317;43.994;22.878;2022-12-08T05:07:35;25.30;;;15.23;;
6566;SDS011;3317;43.994;22.878;2022-12-08T05:10:02;17.43;;;11.03;;
6566;SDS011;3317;43.994;22.878;2022-12-08T05:12:29;15.27;;;10.23;;
6566;SDS011;3317;43.994;22.878;2022-12-08T05:14:56;11.60;;;8.10;;
6566;SDS011;3317;43.994;22.878;2022-12-08T05:17:23;21.77;;;14.93;;
6566;SDS011;3317;43.994;22.878;2022-12-08T05:19:51;23.80;;;15.77;;
6566;SDS011;3317;43.994;22.878;2022-12-08T05:22:18;27.10;;;17.73;;
6566;SDS011;3317;43.994;22.878;2022-12-08T05:24:45;26.20;;;17.07;;
6566;SDS011;3317;43.994;22.878;2022-12-08T05:27:12;28.30;;;17.77;;
6566;SDS011;3317;43.994;22.878;2022-12-08T05:29:39;29.50;;;18.90;;
6566;SDS011;3317;43.994;22.878;2022-12-08T05:32:06;34.53;;;21.27;;
6566;SDS011;3317;43.994;22.878;2022-12-08T05:34:33;35.90;;;23.93;;
6566;SDS011;3317;43.994;22.878;2022-12-08T05:37:01;30.00;;;20.87;;
6566;SDS011;3317;43.994;22.878;2022-12-08T05:39:28;38.20;;;21.53;;
6566;SDS011;3317;43.994;22.878;2022-12-08T05:41:56;23.93;;;16.40;;
6566;SDS011;3317;43.994;22.878;2022-12-08T05:44:23;16.60;;;12.73;;
6566;SDS011;3317;43.994;22.878;2022-12-08T05:46:50;23.10;;;15.10;;
6566;SDS011;3317;43.994;22.878;2022-12-08T05:49:19;28.43;;;16.93;;
6566;SDS011;3317;43.994;22.878;2022-12-08T05:51:46;24.20;;;16.67;;
6566;SDS011;3317;43.994;22.878;2022-12-08T05:54:14;28.57;;;16.90;;
6566;SDS011;3317;43.994;22.878;2022-12-08T05:56:41;29.00;;;17.80;;
6566;SDS011;3317;43.994;22.878;2022-12-08T05:59:08;32.57;;;19.10;;
6566;SDS011;3317;43.994;22.878;2022-12-08T06:01:35;29.53;;;16.93;;
6566;SDS011;3317;43.994;22.878;2022-12-08T06:04:03;30.03;;;17.27;;
6566;SDS011;3317;43.994;22.878;2022-12-08T06:06:30;25.30;;;16.70;;
6566;SDS011;3317;43.994;22.878;2022-12-08T06:09:00;29.23;;;16.67;;
6566;SDS011;3317;43.994;22.878;2022-12-08T06:11:29;31.27;;;17.90;;
6566;SDS011;3317;43.994;22.878;2022-12-08T06:13:57;29.40;;;17.13;;
6566;SDS011;3317;43.994;22.878;2022-12-08T06:16:26;32.30;;;19.73;;
6566;SDS011;3317;43.994;22.878;2022-12-08T06:18:54;26.77;;;16.60;;
6566;SDS011;3317;43.994;22.878;2022-12-08T06:21:22;29.40;;;17.30;;
6566;SDS011;3317;43.994;22.878;2022-12-08T06:23:49;30.90;;;18.43;;
6566;SDS011;3317;43.994;22.878;2022-12-08T06:26:18;28.40;;;17.63;;
6566;SDS011;3317;43.994;22.878;2022-12-08T06:28:47;28.97;;;17.53;;
6566;SDS011;3317;43.994;22.878;2022-12-08T06:31:15;29.17;;;17.50;;
6566;SDS011;3317;43.994;22.878;2022-12-08T06:33:44;28.87;;;17.63;;
6566;SDS011;3317;43.994;22.878;2022-12-08T06:36:12;19.37;;;13.10;;
6566;SDS011;3317;43.994;22.878;2022-12-08T06:38:42;16.77;;;11.37;;
6566;SDS011;3317;43.994;22.878;2022-12-08T06:41:09;23.10;;;15.50;;
6566;SDS011;3317;43.994;22.878;2022-12-08T06:43:37;27.90;;;17.57;;
6566;SDS011;3317;43.994;22.878;2022-12-08T06:46:07;39.67;;;20.83;;
6566;SDS011;3317;43.994;22.878;2022-12-08T06:48:36;31.17;;;17.70;;
6566;SDS011;3317;43.994;22.878;2022-12-08T06:51:06;23.17;;;15.40;;
6566;SDS011;3317;43.994;22.878;2022-12-08T06:53:34;26.00;;;15.13;;
6566;SDS011;3317;43.994;22.878;2022-12-08T06:56:02;27.27;;;16.97;;
6566;SDS011;3317;43.994;22.878;2022-12-08T06:58:29;26.37;;;15.33;;
6566;SDS011;3317;43.994;22.878;2022-12-08T07:00:56;34.37;;;19.40;;
6566;SDS011;3317;43.994;22.878;2022-12-08T07:03:30;24.47;;;15.90;;
6566;SDS011;3317;43.994;22.878;2022-12-08T07:05:57;33.90;;;19.50;;
6566;SDS011;3317;43.994;22.878;2022-12-08T07:08:24;31.10;;;18.37;;
6566;SDS011;3317;43.994;22.878;2022-12-08T07:10:50;27.33;;;16.50;;
6566;SDS011;3317;43.994;22.878;2022-12-08T07:13:17;32.23;;;17.67;;
6566;SDS011;3317;43.994;22.878;2022-12-08T07:15:44;25.60;;;15.20;;
6566;SDS011;3317;43.994;22.878;2022-12-08T07:18:11;31.13;;;17.40;;
6566;SDS011;3317;43.994;22.878;2022-12-08T07:20:39;29.50;;;16.47;;
6566;SDS011;3317;43.994;22.878;2022-12-08T07:23:07;28.10;;;16.37;;
6566;SDS011;3317;43.994;22.878;2022-12-08T07:25:33;27.90;;;15.90;;
6566;SDS011;3317;43.994;22.878;2022-12-08T07:28:00;33.20;;;17.00;;
6566;SDS011;3317;43.994;22.878;2022-12-08T07:30:33;25.87;;;15.00;;
6566;SDS011;3317;43.994;22.878;2022-12-08T07:33:01;27.37;;;16.60;;
6566;SDS011;3317;43.994;22.878;2022-12-08T07:35:28;33.77;;;19.53;;
6566;SDS011;3317;43.994;22.878;2022-12-08T07:37:57;30.87;;;19.17;;
6566;SDS011;3317;43.994;22.878;2022-12-08T07:40:23;32.67;;;19.20;;
6566;SDS011;3317;43.994;22.878;2022-12-08T07:42:50;32.40;;;19.63;;
6566;SDS011;3317;43.994;22.878;2022-12-08T07:45:17;27.70;;;17.03;;
6566;SDS011;3317;43.994;22.878;2022-12-08T07:47:44;34.10;;;19.17;;
6566;SDS011;3317;43.994;22.878;2022-12-08T07:50:11;33.00;;;18.77;;
6566;SDS011;3317;43.994;22.878;2022-12-08T07:52:38;31.20;;;18.70;;
6566;SDS011;3317;43.994;22.878;2022-12-08T07:55:07;25.07;;;15.43;;
6566;SDS011;3317;43.994;22.878;2022-12-08T07:57:34;35.87;;;19.87;;
6566;SDS011;3317;43.994;22.878;2022-12-08T08:00:02;31.07;;;18.57;;
6566;SDS011;3317;43.994;22.878;2022-12-08T08:02:29;34.33;;;19.90;;
6566;SDS011;3317;43.994;22.878;2022-12-08T08:04:56;41.43;;;21.13;;
6566;SDS011;3317;43.994;22.878;2022-12-08T08:07:23;36.90;;;20.57;;
6566;SDS011;3317;43.994;22.878;2022-12-08T08:09:50;36.43;;;20.40;;
6566;SDS011;3317;43.994;22.878;2022-12-08T08:12:18;34.60;;;19.50;;
6566;SDS011;3317;43.994;22.878;2022-12-08T08:14:45;35.03;;;20.47;;
6566;SDS011;3317;43.994;22.878;2022-12-08T08:17:12;37.47;;;21.37;;
6566;SDS011;3317;43.994;22.878;2022-12-08T08:19:39;38.73;;;20.77;;
6566;SDS011;3317;43.994;22.878;2022-12-08T08:22:06;28.13;;;16.90;;
6566;SDS011;3317;43.994;22.878;2022-12-08T08:24:33;29.40;;;18.23;;
6566;SDS011;3317;43.994;22.878;2022-12-08T08:27:00;34.23;;;20.77;;
6566;SDS011;3317;43.994;22.878;2022-12-08T08:29:28;34.20;;;20.10;;
6566;SDS011;3317;43.994;22.878;2022-12-08T08:31:55;38.43;;;21.97;;
6566;SDS011;3317;43.994;22.878;2022-12-08T08:34:22;33.50;;;20.40;;
6566;SDS011;3317;43.994;22.878;2022-12-08T08:36:49;24.80;;;16.70;;
6566;SDS011;3317;43.994;22.878;2022-12-08T08:39:16;38.43;;;22.10;;
6566;SDS011;3317;43.994;22.878;2022-12-08T08:41:43;39.73;;;23.60;;
6566;SDS011;3317;43.994;22.878;2022-12-08T08:44:11;36.50;;;21.50;;
6566;SDS011;3317;43.994;22.878;2022-12-08T08:46:40;38.10;;;22.80;;
6566;SDS011;3317;43.994;22.878;2022-12-08T08:49:07;39.50;;;22.17;;
6566;SDS011;3317;43.994;22.878;2022-12-08T08:51:34;37.80;;;21.27;;
6566;SDS011;3317;43.994;22.878;2022-12-08T08:54:01;37.47;;;22.33;;
6566;SDS011;3317;43.994;22.878;2022-12-08T08:56:28;28.83;;;18.10;;
6566;SDS011;3317;43.994;22.878;2022-12-08T08:58:55;38.43;;;23.50;;
6566;SDS011;3317;43.994;22.878;2022-12-08T09:01:22;38.03;;;21.97;;
6566;SDS011;3317;43.994;22.878;2022-12-08T09:03:52;35.00;;;20.27;;
6566;SDS011;3317;43.994;22.878;2022-12-08T09:06:20;31.70;;;19.80;;
6566;SDS011;3317;43.994;22.878;2022-12-08T09:08:48;33.43;;;20.20;;
6566;SDS011;3317;43.994;22.878;2022-12-08T09:11:15;33.33;;;20.60;;
6566;SDS011;3317;43.994;22.878;2022-12-08T09:13:43;32.50;;;19.10;;
6566;SDS011;3317;43.994;22.878;2022-12-08T09:16:12;33.47;;;20.80;;
6566;SDS011;3317;43.994;22.878;2022-12-08T09:18:39;27.00;;;16.70;;
6566;SDS011;3317;43.994;22.878;2022-12-08T09:21:08;31.00;;;17.80;;
6566;SDS011;3317;43.994;22.878;2022-12-08T09:23:37;29.90;;;16.90;;
6566;SDS011;3317;43.994;22.878;2022-12-08T09:26:04;35.83;;;19.50;;
6566;SDS011;3317;43.994;22.878;2022-12-08T09:28:32;27.67;;;15.87;;
6566;SDS011;3317;43.994;22.878;2022-12-08T09:30:59;36.40;;;22.50;;
6566;SDS011;3317;43.994;22.878;2022-12-08T09:33:26;20.00;;;12.30;;
6566;SDS011;3317;43.994;22.878;2022-12-08T09:35:53;22.77;;;14.17;;
6566;SDS011;3317;43.994;22.878;2022-12-08T09:38:21;42.00;;;24.00;;
6566;SDS011;3317;43.994;22.878;2022-12-08T09:40:49;40.07;;;21.43;;
6566;SDS011;3317;43.994;22.878;2022-12-08T09:43:22;35.80;;;21.07;;
6566;SDS011;3317;43.994;22.878;2022-12-08T09:46:06;33.43;;;18.63;;
6566;SDS011;3317;43.994;22.878;2022-12-08T09:48:36;33.30;;;20.40;;
6566;SDS011;3317;43.994;22.878;2022-12-08T09:51:07;29.87;;;18.60;;
6566;SDS011;3317;43.994;22.878;2022-12-08T09:53:38;33.00;;;19.20;;
6566;SDS011;3317;43.994;22.878;2022-12-08T09:56:10;37.40;;;21.20;;
6566;SDS011;3317;43.994;22.878;2022-12-08T09:58:43;33.63;;;20.47;;
6566;SDS011;3317;43.994;22.878;2022-12-08T10:01:16;39.40;;;21.27;;
6566;SDS011;3317;43.994;22.878;2022-12-08T10:03:44;38.00;;;21.90;;
6566;SDS011;3317;43.994;22.878;2022-12-08T10:06:14;40.30;;;22.37;;
6566;SDS011;3317;43.994;22.878;2022-12-08T10:08:49;37.33;;;22.40;;
6566;SDS011;3317;43.994;22.878;2022-12-08T10:11:28;38.97;;;21.83;;
6566;SDS011;3317;43.994;22.878;2022-12-08T10:14:09;36.50;;;20.90;;
6566;SDS011;3317;43.994;22.878;2022-12-08T10:16:45;33.23;;;19.70;;
6566;SDS011;3317;43.994;22.878;2022-12-08T10:19:17;36.93;;;20.20;;
6566;SDS011;3317;43.994;22.878;2022-12-08T10:21:46;36.67;;;20.60;;
6566;SDS011;3317;43.994;22.878;2022-12-08T10:24:17;37.90;;;20.80;;
6566;SDS011;3317;43.994;22.878;2022-12-08T10:26:49;33.20;;;19.27;;
6566;SDS011;3317;43.994;22.878;2022-12-08T10:29:16;35.23;;;20.80;;
6566;SDS011;3317;43.994;22.878;2022-12-08T10:31:43;40.57;;;21.53;;
6566;SDS011;3317;43.994;22.878;2022-12-08T10:34:15;41.20;;;21.60;;
6566;SDS011;3317;43.994;22.878;2022-12-08T10:36:44;37.53;;;21.60;;
6566;SDS011;3317;43.994;22.878;2022-12-08T10:39:33;36.97;;;20.70;;
6566;SDS011;3317;43.994;22.878;2022-12-08T10:42:06;35.83;;;19.77;;
6566;SDS011;3317;43.994;22.878;2022-12-08T10:44:48;31.33;;;17.90;;
6566;SDS011;3317;43.994;22.878;2022-12-08T10:47:19;31.50;;;18.23;;
6566;SDS011;3317;43.994;22.878;2022-12-08T10:49:52;30.60;;;18.07;;
6566;SDS011;3317;43.994;22.878;2022-12-08T10:52:44;29.73;;;17.53;;
6566;SDS011;3317;43.994;22.878;2022-12-08T10:55:14;29.87;;;16.40;;
6566;SDS011;3317;43.994;22.878;2022-12-08T10:57:42;36.57;;;20.80;;
6566;SDS011;3317;43.994;22.878;2022-12-08T11:00:13;27.67;;;16.10;;
6566;SDS011;3317;43.994;22.878;2022-12-08T11:02:54;29.00;;;15.83;;
6566;SDS011;3317;43.994;22.878;2022-12-08T11:05:25;26.63;;;14.50;;
6566;SDS011;3317;43.994;22.878;2022-12-08T11:07:56;26.57;;;15.43;;
6566;SDS011;3317;43.994;22.878;2022-12-08T11:10:30;30.50;;;16.87;;
6566;SDS011;3317;43.994;22.878;2022-12-08T11:13:00;30.13;;;16.50;;
6566;SDS011;3317;43.994;22.878;2022-12-08T11:15:31;32.47;;;17.57;;
6566;SDS011;3317;43.994;22.878;2022-12-08T11:18:06;33.87;;;19.50;;
6566;SDS011;3317;43.994;22.878;2022-12-08T11:20:39;33.53;;;19.10;;
6566;SDS011;3317;43.994;22.878;2022-12-08T11:23:17;34.30;;;19.03;;
6566;SDS011;3317;43.994;22.878;2022-12-08T11:25:47;34.93;;;19.30;;
6566;SDS011;3317;43.994;22.878;2022-12-08T11:28:17;33.57;;;19.63;;
6566;SDS011;3317;43.994;22.878;2022-12-08T11:30:49;36.67;;;20.53;;
6566;SDS011;3317;43.994;22.878;2022-12-08T11:33:23;31.10;;;18.20;;
6566;SDS011;3317;43.994;22.878;2022-12-08T11:35:53;36.23;;;16.77;;
6566;SDS011;3317;43.994;22.878;2022-12-08T11:38:24;31.20;;;18.37;;
6566;SDS011;3317;43.994;22.878;2022-12-08T11:40:54;29.83;;;18.93;;
6566;SDS011;3317;43.994;22.878;2022-12-08T11:43:29;31.27;;;18.53;;
6566;SDS011;3317;43.994;22.878;2022-12-08T11:46:08;34.97;;;18.87;;
6566;SDS011;3317;43.994;22.878;2022-12-08T11:48:39;35.17;;;19.80;;
6566;SDS011;3317;43.994;22.878;2022-12-08T11:51:11;38.17;;;20.10;;
6566;SDS011;3317;43.994;22.878;2022-12-08T11:53:42;27.50;;;17.20;;
6566;SDS011;3317;43.994;22.878;2022-12-08T11:56:19;31.10;;;17.70;;
6566;SDS011;3317;43.994;22.878;2022-12-08T11:58:51;26.20;;;15.47;;
6566;SDS011;3317;43.994;22.878;2022-12-08T12:01:22;29.03;;;17.43;;
6566;SDS011;3317;43.994;22.878;2022-12-08T12:03:53;23.23;;;14.60;;
6566;SDS011;3317;43.994;22.878;2022-12-08T12:06:36;32.60;;;17.83;;
6566;SDS011;3317;43.994;22.878;2022-12-08T12:09:21;25.50;;;15.20;;
6566;SDS011;3317;43.994;22.878;2022-12-08T12:12:03;26.00;;;17.10;;
6566;SDS011;3317;43.994;22.878;2022-12-08T12:17:45;21.93;;;14.43;;
6566;SDS011;3317;43.994;22.878;2022-12-08T12:20:17;25.47;;;14.83;;
6566;SDS011;3317;43.994;22.878;2022-12-08T12:22:49;28.07;;;16.87;;
6566;SDS011;3317;43.994;22.878;2022-12-08T12:25:22;28.67;;;17.80;;
6566;SDS011;3317;43.994;22.878;2022-12-08T12:27:52;17.83;;;12.50;;
6566;SDS011;3317;43.994;22.878;2022-12-08T12:30:25;19.80;;;13.47;;
6566;SDS011;3317;43.994;22.878;2022-12-08T12:32:54;21.63;;;12.67;;
6566;SDS011;3317;43.994;22.878;2022-12-08T12:35:26;19.47;;;12.03;;
6566;SDS011;3317;43.994;22.878;2022-12-08T12:37:59;17.63;;;12.00;;
6566;SDS011;3317;43.994;22.878;2022-12-08T12:40:33;19.30;;;12.67;;
6566;SDS011;3317;43.994;22.878;2022-12-08T12:43:12;19.10;;;11.80;;
6566;SDS011;3317;43.994;22.878;2022-12-08T12:45:50;15.20;;;11.00;;
6566;SDS011;3317;43.994;22.878;2022-12-08T12:49:00;21.17;;;13.63;;
6566;SDS011;3317;43.994;22.878;2022-12-08T13:04:27;25.83;;;14.70;;
6566;SDS011;3317;43.994;22.878;2022-12-08T13:06:57;25.80;;;16.27;;
6566;SDS011;3317;43.994;22.878;2022-12-08T13:09:29;23.70;;;14.60;;
6566;SDS011;3317;43.994;22.878;2022-12-08T13:11:59;24.67;;;15.90;;
6566;SDS011;3317;43.994;22.878;2022-12-08T13:14:36;22.93;;;15.40;;
6566;SDS011;3317;43.994;22.878;2022-12-08T13:17:10;22.53;;;13.77;;
6566;SDS011;3317;43.994;22.878;2022-12-08T13:19:40;27.13;;;16.97;;
6566;SDS011;3317;43.994;22.878;2022-12-08T13:25:47;20.27;;;14.07;;
6566;SDS011;3317;43.994;22.878;2022-12-08T13:28:18;24.50;;;15.20;;
6566;SDS011;3317;43.994;22.878;2022-12-08T13:30:48;21.53;;;14.20;;
6566;SDS011;3317;43.994;22.878;2022-12-08T13:33:21;25.23;;;16.30;;
6566;SDS011;3317;43.994;22.878;2022-12-08T13:38:46;23.17;;;15.00;;
6566;SDS011;3317;43.994;22.878;2022-12-08T13:41:21;26.53;;;16.60;;
6566;SDS011;3317;43.994;22.878;2022-12-08T13:43:53;21.20;;;13.77;;
6566;SDS011;3317;43.994;22.878;2022-12-08T13:46:30;25.80;;;16.20;;
6566;SDS011;3317;43.994;22.878;2022-12-08T13:49:01;30.77;;;18.03;;
6566;SDS011;3317;43.994;22.878;2022-12-08T13:51:31;28.00;;;16.23;;
6566;SDS011;3317;43.994;22.878;2022-12-08T13:54:06;28.17;;;18.50;;
6566;SDS011;3317;43.994;22.878;2022-12-08T13:56:38;29.90;;;17.97;;
6566;SDS011;3317;43.994;22.878;2022-12-08T13:59:07;29.10;;;18.70;;
6566;SDS011;3317;43.994;22.878;2022-12-08T14:01:49;30.10;;;19.00;;
6566;SDS011;3317;43.994;22.878;2022-12-08T14:04:17;29.00;;;18.10;;
6566;SDS011;3317;43.994;22.878;2022-12-08T14:06:46;28.53;;;17.70;;
6566;SDS011;3317;43.994;22.878;2022-12-08T14:09:15;28.80;;;18.80;;
6566;SDS011;3317;43.994;22.878;2022-12-08T14:11:44;29.73;;;16.67;;
6566;SDS011;3317;43.994;22.878;2022-12-08T14:14:16;28.30;;;17.87;;
6566;SDS011;3317;43.994;22.878;2022-12-08T14:16:53;31.23;;;19.57;;
6566;SDS011;3317;43.994;22.878;2022-12-08T14:19:22;26.87;;;17.10;;
6566;SDS011;3317;43.994;22.878;2022-12-08T14:21:54;31.13;;;19.33;;
6566;SDS011;3317;43.994;22.878;2022-12-08T14:24:23;22.57;;;14.80;;
6566;SDS011;3317;43.994;22.878;2022-12-08T14:26:52;24.70;;;15.40;;
6566;SDS011;3317;43.994;22.878;2022-12-08T14:32:22;30.73;;;17.90;;
6566;SDS011;3317;43.994;22.878;2022-12-08T14:34:52;31.43;;;16.37;;
6566;SDS011;3317;43.994;22.878;2022-12-08T14:37:20;26.33;;;14.87;;
6566;SDS011;3317;43.994;22.878;2022-12-08T14:39:48;26.27;;;14.80;;
6566;SDS011;3317;43.994;22.878;2022-12-08T14:42:19;26.67;;;16.00;;
6566;SDS011;3317;43.994;22.878;2022-12-08T14:44:54;22.23;;;14.90;;
6566;SDS011;3317;43.994;22.878;2022-12-08T14:47:28;27.60;;;17.20;;
6566;SDS011;3317;43.994;22.878;2022-12-08T14:49:56;25.83;;;16.50;;
6566;SDS011;3317;43.994;22.878;2022-12-08T14:52:24;25.90;;;16.30;;
6566;SDS011;3317;43.994;22.878;2022-12-08T14:54:51;26.10;;;15.97;;
6566;SDS011;3317;43.994;22.878;2022-12-08T14:57:20;27.80;;;16.60;;
6566;SDS011;3317;43.994;22.878;2022-12-08T14:59:48;27.83;;;16.80;;
6566;SDS011;3317;43.994;22.878;2022-12-08T15:02:21;29.90;;;17.77;;
6566;SDS011;3317;43.994;22.878;2022-12-08T15:04:55;26.60;;;17.30;;
6566;SDS011;3317;43.994;22.878;2022-12-08T15:07:26;33.70;;;19.90;;
6566;SDS011;3317;43.994;22.878;2022-12-08T15:10:05;31.80;;;19.80;;
6566;SDS011;3317;43.994;22.878;2022-12-08T15:12:35;32.73;;;19.67;;
6566;SDS011;3317;43.994;22.878;2022-12-08T15:15:13;36.33;;;22.20;;
6566;SDS011;3317;43.994;22.878;2022-12-08T15:17:43;38.60;;;23.90;;
6566;SDS011;3317;43.994;22.878;2022-12-08T15:20:29;39.00;;;25.00;;
6566;SDS011;3317;43.994;22.878;2022-12-08T15:23:04;43.47;;;25.97;;